Date,TemperatureHighF,TemperatureAvgF,TemperatureLowF,DewpointHighF,DewpointAvgF,DewpointLowF,HumidityHigh,HumidityAvg,HumidityLow,PressureMaxIn,PressureMinIn,WindSpeedMaxMPH,WindSpeedAvgMPH,GustSpeedMaxMPH,PrecipitationSumIn
2013-10-1,90.0,80.4,71.9,75.7,72.0,69.8,94,77,55,29.99,29.89,14,4,15,0.00
2013-10-2,88.9,80.5,72.6,75.0,72.2,69.8,91,77,58,29.99,29.90,17,6,18,0.00
2013-10-3,88.1,78.6,73.1,77.6,72.9,69.7,89,83,65,30.01,29.91,13,4,14,0.00
2013-10-4,88.7,80.0,74.8,76.4,73.1,68.7,92,80,55,30.03,29.94,11,3,12,0.00
2013-10-5,88.3,79.7,72.7,76.1,72.7,69.5,90,80,57,30.01,29.88,12,3,14,0.00
2013-10-6,86.4,79.3,72.0,76.5,73.2,70.4,95,82,62,29.93,29.82,12,3,13,0.00
2013-10-7,84.9,79.4,73.5,78.4,74.5,71.1,94,85,78,29.83,29.73,23,6,23,0.56
2013-10-8,83.9,80.6,75.0,75.6,73.7,71.2,88,80,69,29.90,29.76,16,5,17,0.00
2013-10-9,78.5,74.8,69.8,71.3,69.8,66.2,92,85,76,29.98,29.88,13,3,14,0.00
2013-10-10,85.9,74.8,65.8,72.0,67.9,64.0,94,81,58,30.01,29.91,12,3,13,0.00
2013-10-11,86.1,77.6,66.9,72.3,68.3,64.6,94,74,54,29.99,29.89,11,3,11,0.00
2013-10-12,84.7,76.5,67.1,70.2,66.0,62.9,88,71,50,30.00,29.93,13,3,15,0.00
2013-10-13,86.9,75.1,66.0,71.5,65.3,62.4,89,73,47,30.03,29.92,10,2,10,0.00
2013-10-14,85.5,75.9,66.6,72.0,67.0,63.6,91,75,51,30.00,29.87,12,4,14,0.00
2013-10-15,82.1,74.7,67.3,72.4,68.9,65.5,94,83,68,29.95,29.84,13,3,13,0.00
2013-10-16,80.6,74.4,68.5,73.8,69.9,66.9,95,86,75,29.92,29.85,10,3,11,0.00
2013-10-17,84.3,77.0,69.2,74.5,70.3,66.5,93,81,56,29.93,29.85,11,3,11,0.00
2013-10-18,85.8,77.4,71.5,75.8,71.8,69.4,94,84,64,29.93,29.84,11,2,12,0.00
2013-10-19,85.8,80.1,73.3,77.6,74.8,71.0,95,84,68,29.90,29.82,13,3,14,0.11
2013-10-20,85.1,79.2,73.4,77.5,74.4,72.2,96,86,73,29.91,29.82,10,2,10,0.00
2013-10-21,84.7,78.7,73.2,77.5,73.7,71.4,96,85,73,29.95,29.87,9,2,10,0.00
2013-10-22,85.1,77.6,71.1,78.5,73.4,69.3,95,87,77,29.91,29.77,15,3,21,0.22
2013-10-23,79.4,75.0,71.0,73.8,67.0,52.4,96,77,46,29.96,29.76,18,5,19,0.41
2013-10-24,73.0,67.1,63.0,61.5,54.9,48.8,84,65,54,30.11,29.94,17,5,17,0.00
2013-10-25,80.6,68.0,58.9,61.0,57.5,54.5,91,72,42,30.19,30.08,16,4,19,0.00
2013-10-26,79.8,68.7,60.2,63.1,59.1,52.7,89,73,40,30.16,30.04,12,4,13,0.00
2013-10-27,80.6,68.0,57.4,61.5,57.6,54.8,92,72,42,30.08,29.99,13,3,14,0.00
2013-10-28,83.9,70.4,60.3,66.2,60.6,56.7,89,73,44,30.13,30.03,13,3,13,0.00
2013-10-29,84.5,73.3,63.5,68.2,63.7,60.2,89,73,48,30.17,30.06,15,4,16,0.00
2013-10-30,84.7,74.5,66.3,70.0,66.3,63.9,92,77,55,30.17,30.02,17,4,17,0.00
2013-10-31,85.0,74.6,65.9,72.4,68.3,63.5,93,81,57,30.07,29.93,15,3,15,0.00